Terminal Aerodrome Forecast
Issued by NWS Corpus Christi, TX

Home | Current Version | Previous Version | Text Only | Print | Product List | Glossary On
Versions: 1 2 3 4 5 6 7 8 9 10 11 12 13 14 15 16 17 18 19 20 21
000
FTUS44 KCRP 010532
TAFVCT
TAF
KVCT 010532Z 0106/0206 08005KT 2SM BR SCT015 BKN030
      TEMPO 0106/0108 1SM BR BKN015
     FM010800 08005KT 1SM BR SCT006 BKN012
      TEMPO 0108/0112 1/2SM FG BKN005
     FM011500 08008KT 5SM HZ VCSH BKN012 OVC025
     FM011900 09010G15KT P6SM BKN018 OVC030 PROB30 0119/0123 5SM
      TSRA OVC015CB
     FM020200 06008KT 5SM BR OVC012=

USA.gov is the U.S. government's official web portal to all federal, state and local government web resources and services.